»·PEaware :: N3535R KSEA-KPDX

N3535R :: KSEA-KPDX

FLIGHT INFORMATION

Flight Status: Arrived
Operator: Privately registered:
United States
More flights under this callsign
Pilot: John B. (35460)
Aircraft: MOONEY M-20K/M ENCORE BRAVO
(M20T)
More flights by this aircraft type
Origin: KSEA Seattle-Tacoma Intl
United States
Destination: KPDX Portland Intl
United States
More flights between these airports :: More routes between these airports
Route: SEA7 SEA V23 BTG
File this flight plan on PilotEdge
Remarks:
Altitude:
(Current/Filed)
7,000ft
Speed:
(Current/Filed)
170kts
Departed: 05-Nov-21 03:02 PM
Arrived: 05-Nov-21 03:50 PM
Distance/Time
Traveled:
112nm/0:48
Distance/Time
To Go:
Arrived

Flight Plot

Page will automatically refresh every two minutes.

Flight plan parsing failed; only flown route is shown


Map Options




Map Legend


Flown Route
Filed Route
Departure Airport
Arrival Airport
Navaid (VOR, NDB)
Fix

Horizontal Profiles

Position Reports

Time Latitude Longitude Heading Altitude Ground
Speed
05-Nov-21 14:45 47.439495 -122.315510 61 435ft 0kts
05-Nov-21 14:46 47.439495 -122.315510 61 435ft 0kts
05-Nov-21 14:47 47.439495 -122.315510 61 435ft 0kts
05-Nov-21 14:48 47.439495 -122.315510 61 435ft 0kts
05-Nov-21 14:49 47.439495 -122.315510 61 435ft 0kts
05-Nov-21 14:50 47.439495 -122.315510 61 435ft 0kts
05-Nov-21 14:52 47.439495 -122.315510 61 435ft 0kts
05-Nov-21 14:53 47.439495 -122.315510 61 435ft 0kts
05-Nov-21 14:54 47.439495 -122.315510 61 435ft 0kts
05-Nov-21 14:55 47.439548 -122.314238 93 435ft 7kts
05-Nov-21 14:56 47.443007 -122.313562 1 435ft 18kts
05-Nov-21 14:57 47.449376 -122.313531 0 435ft 23kts
05-Nov-21 14:58 47.454975 -122.313485 0 435ft 20kts
05-Nov-21 14:59 47.461619 -122.313425 359 435ft 19kts
05-Nov-21 15:00 47.463674 -122.312554 96 435ft 0kts
05-Nov-21 15:01 47.463674 -122.312554 96 435ft 0kts
05-Nov-21 15:02 47.456944 -122.311098 182 541ft 77kts
05-Nov-21 15:03 47.431503 -122.309410 190 1844ft 93kts
05-Nov-21 15:04 47.404653 -122.309879 182 3001ft 118kts
05-Nov-21 15:05 47.361601 -122.309245 182 3036ft 173kts
05-Nov-21 15:06 47.311226 -122.309506 182 3007ft 185kts
05-Nov-21 15:07 47.269518 -122.345862 215 3537ft 171kts
05-Nov-21 15:08 47.225847 -122.372203 201 4130ft 170kts
05-Nov-21 15:09 47.181278 -122.396071 199 4727ft 169kts
05-Nov-21 15:10 47.137384 -122.419460 199 5319ft 167kts
05-Nov-21 15:11 47.093770 -122.442688 200 5909ft 167kts
05-Nov-21 15:12 47.050085 -122.465916 200 6499ft 167kts
05-Nov-21 15:12 47.013248 -122.485476 199 6971ft 168kts
05-Nov-21 15:14 46.954272 -122.516718 198 6993ft 184kts
05-Nov-21 15:15 46.902980 -122.543837 198 6991ft 182kts
05-Nov-21 15:16 46.853750 -122.568462 195 6996ft 180kts
05-Nov-21 15:16 46.809887 -122.587820 201 6994ft 195kts
05-Nov-21 15:17 46.749418 -122.614429 201 6995ft 201kts
05-Nov-21 15:19 46.683706 -122.643188 202 6997ft 198kts
05-Nov-21 15:20 46.626632 -122.668331 201 7000ft 198kts
05-Nov-21 15:20 46.578008 -122.690420 202 6991ft 199kts
05-Nov-21 15:21 46.520197 -122.716672 201 6993ft 201kts
05-Nov-21 15:22 46.461470 -122.743333 195 6997ft 188kts
05-Nov-21 15:23 46.406026 -122.754734 176 6999ft 181kts
05-Nov-21 15:24 46.349884 -122.742109 174 6999ft 181kts
05-Nov-21 15:25 46.293955 -122.728088 173 6999ft 181kts
05-Nov-21 15:26 46.238985 -122.714213 173 6999ft 181kts
05-Nov-21 15:27 46.183503 -122.700226 173 6999ft 181kts
05-Nov-21 15:28 46.128990 -122.686511 173 6998ft 181kts
05-Nov-21 15:29 46.073716 -122.672640 173 6998ft 181kts
05-Nov-21 15:30 46.021064 -122.659519 173 6998ft 181kts
05-Nov-21 15:31 45.976592 -122.692194 214 6300ft 163kts
05-Nov-21 15:32 45.939951 -122.729771 214 5385ft 162kts
05-Nov-21 15:33 45.903028 -122.768253 214 4320ft 166kts
05-Nov-21 15:34 45.865803 -122.808271 214 3227ft 169kts
05-Nov-21 15:35 45.828587 -122.848689 214 3002ft 167kts
05-Nov-21 15:36 45.792516 -122.887461 214 3000ft 157kts
05-Nov-21 15:37 45.759066 -122.923176 214 3000ft 142kts
05-Nov-21 15:38 45.728810 -122.955797 214 3001ft 132kts
05-Nov-21 15:39 45.703870 -122.947820 88 3002ft 139kts
05-Nov-21 15:40 45.712181 -122.893521 112 3000ft 134kts
05-Nov-21 15:41 45.693674 -122.849285 123 3005ft 127kts
05-Nov-21 15:42 45.676505 -122.805830 121 3008ft 124kts
05-Nov-21 15:43 45.660966 -122.765652 118 2690ft 99kts
05-Nov-21 15:44 45.648326 -122.733110 113 2205ft 94kts
05-Nov-21 15:45 45.635255 -122.699388 115 1686ft 98kts
05-Nov-21 15:46 45.621908 -122.665091 116 1149ft 98kts
05-Nov-21 15:47 45.608891 -122.631662 118 627ft 94kts
05-Nov-21 15:48 45.597486 -122.602387 118 176ft 77kts
05-Nov-21 15:49 45.590386 -122.584248 119 24ft 25kts
05-Nov-21 15:50 45.588570 -122.582227 207 24ft 3kts
05-Nov-21 15:51 45.585542 -122.576945 212 24ft 4kts
05-Nov-21 15:52 45.585288 -122.577166 209 24ft 0kts

Navigation Log

Ident Type
Flight plan parsing failed, navigation log unavailable